< Typhoon 196323 1963 Season Typhoon 196401 >
Typhoon 196324 (SUSAN)
General InformationTrack Information on Google Maps || Disaster Info.ResourceGoogle EarthGE AnimationAtom FeedGeoJSON
Detalied Best Track (Time Zone = UTC)
Year Month Day Hour Lat. Long. Pressure (hPa) Wind (kt) Class Image Chart
1963 12 18 00 2.3 173.8 1004 0 2 -- Chart
1963 12 18 06 2.5 172.9 1004 0 2 -- Chart
1963 12 18 12 3.0 172.0 1006 0 2 -- Chart
1963 12 18 18 3.5 171.2 1004 0 2 -- Chart
1963 12 19 00 4.2 170.5 1004 0 2 -- Chart
1963 12 19 06 4.7 169.7 1002 0 2 -- Chart
1963 12 19 12 5.3 169.0 1002 0 2 -- Chart
1963 12 19 18 6.0 168.3 1000 0 2 -- Chart
1963 12 20 00 6.5 167.6 998 0 9 -- Chart
1963 12 20 06 7.1 166.9 996 0 9 -- Chart
1963 12 20 12 7.5 166.3 996 0 9 -- Chart
1963 12 20 18 7.9 165.5 990 0 9 -- Chart
1963 12 21 00 8.4 164.9 985 0 9 -- Chart
1963 12 21 06 8.7 163.9 985 0 9 -- Chart
1963 12 21 12 8.9 162.8 985 0 9 -- Chart
1963 12 21 18 9.0 161.6 985 0 9 -- Chart
1963 12 22 00 9.0 160.4 985 0 9 -- Chart
1963 12 22 06 9.3 158.9 985 0 9 -- Chart
1963 12 22 12 9.9 157.5 985 0 9 -- Chart
1963 12 22 18 10.6 156.3 985 0 9 -- Chart
1963 12 23 00 11.2 155.0 980 0 9 -- Chart
1963 12 23 06 11.7 154.1 980 0 9 -- Chart
1963 12 23 12 12.3 152.8 980 0 9 -- Chart
1963 12 23 18 12.7 151.6 980 0 9 -- Chart
1963 12 24 00 13.3 149.7 980 0 9 -- Chart
1963 12 24 06 13.8 148.5 970 0 9 -- Chart
1963 12 24 12 14.1 147.3 970 0 9 -- Chart
1963 12 24 18 14.4 145.7 970 0 9 -- Chart
1963 12 25 00 14.6 144.6 970 0 9 -- Chart
1963 12 25 06 14.9 143.7 945 0 9 -- Chart
1963 12 25 12 15.4 142.2 945 0 9 -- Chart
1963 12 25 18 15.6 141.0 940 0 9 -- Chart
1963 12 26 00 15.9 140.0 940 0 9 -- Chart
1963 12 26 06 16.5 139.5 935 0 9 -- Chart
1963 12 26 12 17.0 138.6 935 0 9 -- Chart
1963 12 26 18 17.6 138.6 935 0 9 -- Chart
1963 12 27 00 18.4 139.1 935 0 9 -- Chart
1963 12 27 06 19.0 139.6 935 0 9 -- Chart
1963 12 27 12 19.7 139.5 935 0 9 -- Chart
1963 12 27 18 21.0 138.1 935 0 9 -- Chart
1963 12 28 00 22.3 138.3 945 0 9 -- Chart
1963 12 28 06 23.4 139.0 950 0 9 -- Chart
1963 12 28 12 24.1 139.6 970 0 9 -- Chart
1963 12 28 18 24.6 154.3 990 0 9 -- Chart
1963 12 29 00 25.3 158.6 1002 0 6 -- Chart
1963 12 29 06 26.1 162.1 1006 0 6 -- Chart
Japan Meteorological Agency Best Track Data | Correction Date : 1990-10-17
< Typhoon 196323 1963 Season Typhoon 196401 >

Help